sensor_id;sensor_type;location;lat;lon;timestamp;temperature;humidity
19999;DHT22;10160;50.926;4.374;2024-02-21T00:00:05;10.00;99.90
19999;DHT22;10160;50.926;4.374;2024-02-21T00:02:37;10.00;99.90
19999;DHT22;10160;50.926;4.374;2024-02-21T00:05:11;10.00;99.90
19999;DHT22;10160;50.926;4.374;2024-02-21T00:07:43;10.00;99.90
19999;DHT22;10160;50.926;4.374;2024-02-21T00:10:09;10.00;99.90
19999;DHT22;10160;50.926;4.374;2024-02-21T00:12:34;9.90;99.90
19999;DHT22;10160;50.926;4.374;2024-02-21T00:15:00;9.80;99.90
19999;DHT22;10160;50.926;4.374;2024-02-21T00:17:29;9.80;99.90
19999;DHT22;10160;50.926;4.374;2024-02-21T00:19:57;9.80;99.90
19999;DHT22;10160;50.926;4.374;2024-02-21T00:22:26;9.80;99.90
19999;DHT22;10160;50.926;4.374;2024-02-21T00:24:54;9.80;99.90
19999;DHT22;10160;50.926;4.374;2024-02-21T00:27:20;9.80;99.90
19999;DHT22;10160;50.926;4.374;2024-02-21T00:29:48;9.90;99.90
19999;DHT22;10160;50.926;4.374;2024-02-21T00:32:14;9.90;99.90
19999;DHT22;10160;50.926;4.374;2024-02-21T00:34:39;9.90;99.90
19999;DHT22;10160;50.926;4.374;2024-02-21T00:37:08;9.90;99.90
19999;DHT22;10160;50.926;4.374;2024-02-21T00:39:34;9.80;99.90
19999;DHT22;10160;50.926;4.374;2024-02-21T00:41:59;9.80;99.90
19999;DHT22;10160;50.926;4.374;2024-02-21T00:44:25;9.90;99.90
19999;DHT22;10160;50.926;4.374;2024-02-21T00:46:51;9.90;99.90
19999;DHT22;10160;50.926;4.374;2024-02-21T00:49:18;9.80;99.90
19999;DHT22;10160;50.926;4.374;2024-02-21T00:51:43;9.80;99.90
19999;DHT22;10160;50.926;4.374;2024-02-21T00:54:09;9.80;99.90
19999;DHT22;10160;50.926;4.374;2024-02-21T00:56:34;9.90;99.90
19999;DHT22;10160;50.926;4.374;2024-02-21T00:59:03;9.90;99.90
19999;DHT22;10160;50.926;4.374;2024-02-21T01:01:28;9.90;99.90
19999;DHT22;10160;50.926;4.374;2024-02-21T01:03:54;9.80;99.90
19999;DHT22;10160;50.926;4.374;2024-02-21T01:06:20;9.70;99.90
19999;DHT22;10160;50.926;4.374;2024-02-21T01:08:55;9.70;99.90
19999;DHT22;10160;50.926;4.374;2024-02-21T01:11:24;9.70;99.90
19999;DHT22;10160;50.926;4.374;2024-02-21T01:13:50;9.80;99.90
19999;DHT22;10160;50.926;4.374;2024-02-21T01:16:15;9.70;99.90
19999;DHT22;10160;50.926;4.374;2024-02-21T01:18:47;9.70;99.90
19999;DHT22;10160;50.926;4.374;2024-02-21T01:21:13;9.80;99.90
19999;DHT22;10160;50.926;4.374;2024-02-21T01:23:41;9.80;99.90
19999;DHT22;10160;50.926;4.374;2024-02-21T01:26:06;9.80;99.90
19999;DHT22;10160;50.926;4.374;2024-02-21T01:28:34;9.80;99.90
19999;DHT22;10160;50.926;4.374;2024-02-21T01:31:03;9.80;99.90
19999;DHT22;10160;50.926;4.374;2024-02-21T01:33:29;9.80;99.90
19999;DHT22;10160;50.926;4.374;2024-02-21T01:36:06;9.70;99.90
19999;DHT22;10160;50.926;4.374;2024-02-21T01:38:32;9.70;99.90
19999;DHT22;10160;50.926;4.374;2024-02-21T01:40:58;9.70;99.90
19999;DHT22;10160;50.926;4.374;2024-02-21T01:43:24;9.50;99.90
19999;DHT22;10160;50.926;4.374;2024-02-21T01:45:56;9.50;99.90
19999;DHT22;10160;50.926;4.374;2024-02-21T01:48:25;9.50;99.90
19999;DHT22;10160;50.926;4.374;2024-02-21T01:50:52;9.50;99.90
19999;DHT22;10160;50.926;4.374;2024-02-21T01:53:21;9.60;99.90
19999;DHT22;10160;50.926;4.374;2024-02-21T01:55:51;9.50;99.90
19999;DHT22;10160;50.926;4.374;2024-02-21T01:58:17;9.50;99.90
19999;DHT22;10160;50.926;4.374;2024-02-21T02:00:47;9.60;99.90
19999;DHT22;10160;50.926;4.374;2024-02-21T02:03:13;9.60;99.90
19999;DHT22;10160;50.926;4.374;2024-02-21T02:05:49;9.60;99.90
19999;DHT22;10160;50.926;4.374;2024-02-21T02:08:16;9.60;99.90
19999;DHT22;10160;50.926;4.374;2024-02-21T02:10:43;9.50;99.90
19999;DHT22;10160;50.926;4.374;2024-02-21T02:13:09;9.60;99.90
19999;DHT22;10160;50.926;4.374;2024-02-21T02:15:45;9.60;99.90
19999;DHT22;10160;50.926;4.374;2024-02-21T02:18:14;9.50;99.90
19999;DHT22;10160;50.926;4.374;2024-02-21T02:20:40;9.50;99.90
19999;DHT22;10160;50.926;4.374;2024-02-21T02:23:31;9.60;99.90
19999;DHT22;10160;50.926;4.374;2024-02-21T02:25:59;9.60;99.90
19999;DHT22;10160;50.926;4.374;2024-02-21T02:28:26;9.60;99.90
19999;DHT22;10160;50.926;4.374;2024-02-21T02:30:52;9.60;99.90
19999;DHT22;10160;50.926;4.374;2024-02-21T02:33:18;9.60;99.90
19999;DHT22;10160;50.926;4.374;2024-02-21T02:35:49;9.50;99.90
19999;DHT22;10160;50.926;4.374;2024-02-21T02:38:17;9.50;99.90
19999;DHT22;10160;50.926;4.374;2024-02-21T02:40:44;9.40;99.90
19999;DHT22;10160;50.926;4.374;2024-02-21T02:43:15;9.40;99.90
19999;DHT22;10160;50.926;4.374;2024-02-21T02:45:47;9.40;99.90
19999;DHT22;10160;50.926;4.374;2024-02-21T02:48:12;9.40;99.90
19999;DHT22;10160;50.926;4.374;2024-02-21T02:50:38;9.50;99.90
19999;DHT22;10160;50.926;4.374;2024-02-21T02:53:04;9.50;99.90
19999;DHT22;10160;50.926;4.374;2024-02-21T02:55:35;9.50;99.90
19999;DHT22;10160;50.926;4.374;2024-02-21T02:58:01;9.60;99.90
19999;DHT22;10160;50.926;4.374;2024-02-21T03:00:30;9.60;99.90
19999;DHT22;10160;50.926;4.374;2024-02-21T03:02:56;9.60;99.90
19999;DHT22;10160;50.926;4.374;2024-02-21T03:05:21;9.60;99.90
19999;DHT22;10160;50.926;4.374;2024-02-21T03:07:48;9.60;99.90
19999;DHT22;10160;50.926;4.374;2024-02-21T03:10:14;9.50;99.90
19999;DHT22;10160;50.926;4.374;2024-02-21T03:12:42;9.40;99.90
19999;DHT22;10160;50.926;4.374;2024-02-21T03:15:08;9.50;99.90
19999;DHT22;10160;50.926;4.374;2024-02-21T03:17:34;9.50;99.90
19999;DHT22;10160;50.926;4.374;2024-02-21T03:20:00;9.50;99.90
19999;DHT22;10160;50.926;4.374;2024-02-21T03:22:26;9.30;99.90
19999;DHT22;10160;50.926;4.374;2024-02-21T03:24:52;9.30;99.90
19999;DHT22;10160;50.926;4.374;2024-02-21T03:27:18;9.30;99.90
19999;DHT22;10160;50.926;4.374;2024-02-21T03:29:44;9.30;99.90
19999;DHT22;10160;50.926;4.374;2024-02-21T03:32:12;9.30;99.90
19999;DHT22;10160;50.926;4.374;2024-02-21T03:34:40;9.30;99.90
19999;DHT22;10160;50.926;4.374;2024-02-21T03:37:06;9.40;99.90
19999;DHT22;10160;50.926;4.374;2024-02-21T03:39:37;9.50;99.90
19999;DHT22;10160;50.926;4.374;2024-02-21T03:42:03;9.50;99.90
19999;DHT22;10160;50.926;4.374;2024-02-21T03:44:33;9.50;99.90
19999;DHT22;10160;50.926;4.374;2024-02-21T03:47:02;9.30;99.90
19999;DHT22;10160;50.926;4.374;2024-02-21T03:49:33;9.30;99.90
19999;DHT22;10160;50.926;4.374;2024-02-21T03:51:59;9.40;99.90
19999;DHT22;10160;50.926;4.374;2024-02-21T03:54:25;9.30;99.90
19999;DHT22;10160;50.926;4.374;2024-02-21T03:56:50;9.20;99.90
19999;DHT22;10160;50.926;4.374;2024-02-21T03:59:31;9.40;99.90
19999;DHT22;10160;50.926;4.374;2024-02-21T04:01:56;9.40;99.90
19999;DHT22;10160;50.926;4.374;2024-02-21T04:04:22;9.40;99.90
19999;DHT22;10160;50.926;4.374;2024-02-21T04:06:51;9.40;99.90
19999;DHT22;10160;50.926;4.374;2024-02-21T04:09:17;9.30;99.90
19999;DHT22;10160;50.926;4.374;2024-02-21T04:11:46;9.40;99.90
19999;DHT22;10160;50.926;4.374;2024-02-21T04:14:12;9.40;99.90
19999;DHT22;10160;50.926;4.374;2024-02-21T04:16:37;9.40;99.90
19999;DHT22;10160;50.926;4.374;2024-02-21T04:19:04;9.40;99.90
19999;DHT22;10160;50.926;4.374;2024-02-21T04:21:30;9.50;99.90
19999;DHT22;10160;50.926;4.374;2024-02-21T04:23:55;9.50;99.90
19999;DHT22;10160;50.926;4.374;2024-02-21T04:26:21;9.40;99.90
19999;DHT22;10160;50.926;4.374;2024-02-21T04:28:49;9.40;99.90
19999;DHT22;10160;50.926;4.374;2024-02-21T04:31:15;9.40;99.90
19999;DHT22;10160;50.926;4.374;2024-02-21T04:33:41;9.50;99.90
19999;DHT22;10160;50.926;4.374;2024-02-21T04:36:12;9.40;99.90
19999;DHT22;10160;50.926;4.374;2024-02-21T04:38:37;9.50;99.90
19999;DHT22;10160;50.926;4.374;2024-02-21T04:41:06;9.60;99.90
19999;DHT22;10160;50.926;4.374;2024-02-21T04:43:35;9.50;99.90
19999;DHT22;10160;50.926;4.374;2024-02-21T04:46:01;9.50;99.90
19999;DHT22;10160;50.926;4.374;2024-02-21T04:48:38;9.50;99.90
19999;DHT22;10160;50.926;4.374;2024-02-21T04:51:04;9.40;99.90
19999;DHT22;10160;50.926;4.374;2024-02-21T04:53:33;9.40;99.90
19999;DHT22;10160;50.926;4.374;2024-02-21T04:56:01;9.40;99.90
19999;DHT22;10160;50.926;4.374;2024-02-21T04:58:27;9.40;99.90
19999;DHT22;10160;50.926;4.374;2024-02-21T05:00:52;9.50;99.90
19999;DHT22;10160;50.926;4.374;2024-02-21T05:03:20;9.50;99.90
19999;DHT22;10160;50.926;4.374;2024-02-21T05:05:51;9.60;99.90
19999;DHT22;10160;50.926;4.374;2024-02-21T05:08:19;9.60;99.90
19999;DHT22;10160;50.926;4.374;2024-02-21T05:10:47;9.40;99.90
19999;DHT22;10160;50.926;4.374;2024-02-21T05:13:13;9.40;99.90
19999;DHT22;10160;50.926;4.374;2024-02-21T05:15:39;9.60;99.90
19999;DHT22;10160;50.926;4.374;2024-02-21T05:18:04;9.50;99.90
19999;DHT22;10160;50.926;4.374;2024-02-21T05:20:33;9.60;99.90
19999;DHT22;10160;50.926;4.374;2024-02-21T05:22:58;9.60;99.90
19999;DHT22;10160;50.926;4.374;2024-02-21T05:25:33;9.60;99.90
19999;DHT22;10160;50.926;4.374;2024-02-21T05:27:58;9.60;99.90
19999;DHT22;10160;50.926;4.374;2024-02-21T05:30:27;9.60;99.90
19999;DHT22;10160;50.926;4.374;2024-02-21T05:33:14;9.60;99.90
19999;DHT22;10160;50.926;4.374;2024-02-21T05:35:49;9.70;99.90
19999;DHT22;10160;50.926;4.374;2024-02-21T05:38:18;9.80;99.90
19999;DHT22;10160;50.926;4.374;2024-02-21T05:40:49;9.80;99.90
19999;DHT22;10160;50.926;4.374;2024-02-21T05:43:17;9.80;99.90
19999;DHT22;10160;50.926;4.374;2024-02-21T05:45:43;9.70;99.90
19999;DHT22;10160;50.926;4.374;2024-02-21T05:48:08;9.70;99.90
19999;DHT22;10160;50.926;4.374;2024-02-21T05:50:34;9.70;99.90
19999;DHT22;10160;50.926;4.374;2024-02-21T05:53:00;9.70;99.90
19999;DHT22;10160;50.926;4.374;2024-02-21T05:55:25;9.60;99.90
19999;DHT22;10160;50.926;4.374;2024-02-21T05:57:53;9.70;99.90
19999;DHT22;10160;50.926;4.374;2024-02-21T06:00:23;9.80;99.90
19999;DHT22;10160;50.926;4.374;2024-02-21T06:02:51;9.90;99.90
19999;DHT22;10160;50.926;4.374;2024-02-21T06:05:17;9.90;99.90
19999;DHT22;10160;50.926;4.374;2024-02-21T06:07:48;9.80;99.90
19999;DHT22;10160;50.926;4.374;2024-02-21T06:10:14;9.70;99.90
19999;DHT22;10160;50.926;4.374;2024-02-21T06:12:43;9.70;99.90
19999;DHT22;10160;50.926;4.374;2024-02-21T06:15:15;9.60;99.90
19999;DHT22;10160;50.926;4.374;2024-02-21T06:17:43;9.70;99.90
19999;DHT22;10160;50.926;4.374;2024-02-21T06:20:26;9.80;99.90
19999;DHT22;10160;50.926;4.374;2024-02-21T06:23:01;9.60;99.90
19999;DHT22;10160;50.926;4.374;2024-02-21T06:25:27;9.60;99.90
19999;DHT22;10160;50.926;4.374;2024-02-21T06:27:53;9.70;99.90
19999;DHT22;10160;50.926;4.374;2024-02-21T06:30:18;9.70;99.90
19999;DHT22;10160;50.926;4.374;2024-02-21T06:32:47;9.70;99.90
19999;DHT22;10160;50.926;4.374;2024-02-21T06:35:13;9.70;99.90
19999;DHT22;10160;50.926;4.374;2024-02-21T06:37:38;9.80;99.90
19999;DHT22;10160;50.926;4.374;2024-02-21T06:40:07;9.70;99.90
19999;DHT22;10160;50.926;4.374;2024-02-21T06:42:39;9.70;99.90
19999;DHT22;10160;50.926;4.374;2024-02-21T06:45:05;9.60;99.90
19999;DHT22;10160;50.926;4.374;2024-02-21T06:47:34;9.60;99.90
19999;DHT22;10160;50.926;4.374;2024-02-21T06:50:18;9.50;99.90
19999;DHT22;10160;50.926;4.374;2024-02-21T06:52:43;9.50;99.90
19999;DHT22;10160;50.926;4.374;2024-02-21T06:55:09;9.50;99.90
19999;DHT22;10160;50.926;4.374;2024-02-21T06:57:35;9.50;99.90
19999;DHT22;10160;50.926;4.374;2024-02-21T07:00:18;9.50;99.90
19999;DHT22;10160;50.926;4.374;2024-02-21T07:02:48;9.40;99.90
19999;DHT22;10160;50.926;4.374;2024-02-21T07:05:13;9.40;99.90
19999;DHT22;10160;50.926;4.374;2024-02-21T07:07:39;9.40;99.90
19999;DHT22;10160;50.926;4.374;2024-02-21T07:10:06;9.40;99.90
19999;DHT22;10160;50.926;4.374;2024-02-21T07:12:33;9.40;99.90
19999;DHT22;10160;50.926;4.374;2024-02-21T07:15:00;9.30;99.90
19999;DHT22;10160;50.926;4.374;2024-02-21T07:17:26;9.30;99.90
19999;DHT22;10160;50.926;4.374;2024-02-21T07:19:51;9.30;99.90
19999;DHT22;10160;50.926;4.374;2024-02-21T07:22:17;9.40;99.90
19999;DHT22;10160;50.926;4.374;2024-02-21T07:24:43;9.30;99.90
19999;DHT22;10160;50.926;4.374;2024-02-21T07:27:08;9.30;99.90
19999;DHT22;10160;50.926;4.374;2024-02-21T07:29:44;9.20;99.90
19999;DHT22;10160;50.926;4.374;2024-02-21T07:32:12;9.20;99.90
19999;DHT22;10160;50.926;4.374;2024-02-21T07:34:38;9.20;99.90
19999;DHT22;10160;50.926;4.374;2024-02-21T07:37:04;9.10;99.90
19999;DHT22;10160;50.926;4.374;2024-02-21T07:39:29;9.10;99.90
19999;DHT22;10160;50.926;4.374;2024-02-21T07:42:01;9.20;99.90
19999;DHT22;10160;50.926;4.374;2024-02-21T07:44:26;9.20;99.90
19999;DHT22;10160;50.926;4.374;2024-02-21T07:46:58;9.30;99.90
19999;DHT22;10160;50.926;4.374;2024-02-21T07:49:25;9.30;99.90
19999;DHT22;10160;50.926;4.374;2024-02-21T07:51:50;9.40;99.90
19999;DHT22;10160;50.926;4.374;2024-02-21T07:54:17;9.30;99.90
19999;DHT22;10160;50.926;4.374;2024-02-21T07:56:46;9.20;99.90
19999;DHT22;10160;50.926;4.374;2024-02-21T07:59:12;9.30;99.90
19999;DHT22;10160;50.926;4.374;2024-02-21T08:01:47;9.30;99.90
19999;DHT22;10160;50.926;4.374;2024-02-21T08:04:12;9.20;99.90
19999;DHT22;10160;50.926;4.374;2024-02-21T08:06:41;9.30;99.90
19999;DHT22;10160;50.926;4.374;2024-02-21T08:09:07;9.20;99.90
19999;DHT22;10160;50.926;4.374;2024-02-21T08:11:32;9.30;99.90
19999;DHT22;10160;50.926;4.374;2024-02-21T08:13:58;9.40;99.90
19999;DHT22;10160;50.926;4.374;2024-02-21T08:16:26;9.40;99.90
19999;DHT22;10160;50.926;4.374;2024-02-21T08:18:52;9.40;99.90
19999;DHT22;10160;50.926;4.374;2024-02-21T08:21:18;9.60;99.90
19999;DHT22;10160;50.926;4.374;2024-02-21T08:23:46;9.60;99.90
19999;DHT22;10160;50.926;4.374;2024-02-21T08:26:22;9.50;99.90
19999;DHT22;10160;50.926;4.374;2024-02-21T08:28:48;9.60;99.90
19999;DHT22;10160;50.926;4.374;2024-02-21T08:31:27;9.50;99.90
19999;DHT22;10160;50.926;4.374;2024-02-21T08:34:00;9.70;99.90
19999;DHT22;10160;50.926;4.374;2024-02-21T08:36:36;9.70;99.90
19999;DHT22;10160;50.926;4.374;2024-02-21T08:39:04;9.70;99.90
19999;DHT22;10160;50.926;4.374;2024-02-21T08:41:39;9.60;99.90
19999;DHT22;10160;50.926;4.374;2024-02-21T08:44:08;9.50;99.90
19999;DHT22;10160;50.926;4.374;2024-02-21T08:46:33;9.60;99.90
19999;DHT22;10160;50.926;4.374;2024-02-21T08:48:59;9.60;99.90
19999;DHT22;10160;50.926;4.374;2024-02-21T08:51:28;9.60;99.90
19999;DHT22;10160;50.926;4.374;2024-02-21T08:54:03;9.70;99.90
19999;DHT22;10160;50.926;4.374;2024-02-21T08:56:36;9.70;99.90
19999;DHT22;10160;50.926;4.374;2024-02-21T08:59:02;9.70;99.90
19999;DHT22;10160;50.926;4.374;2024-02-21T09:01:29;9.70;99.90
19999;DHT22;10160;50.926;4.374;2024-02-21T09:03:55;9.60;99.90
19999;DHT22;10160;50.926;4.374;2024-02-21T09:06:25;9.70;99.90
19999;DHT22;10160;50.926;4.374;2024-02-21T09:08:51;9.80;99.90
19999;DHT22;10160;50.926;4.374;2024-02-21T09:11:25;9.70;99.90
19999;DHT22;10160;50.926;4.374;2024-02-21T09:13:58;9.60;99.90
19999;DHT22;10160;50.926;4.374;2024-02-21T09:16:32;9.90;99.90
19999;DHT22;10160;50.926;4.374;2024-02-21T09:19:01;9.90;99.90
19999;DHT22;10160;50.926;4.374;2024-02-21T09:21:27;9.90;99.90
19999;DHT22;10160;50.926;4.374;2024-02-21T09:23:56;9.90;99.90
19999;DHT22;10160;50.926;4.374;2024-02-21T09:26:21;9.90;99.90
19999;DHT22;10160;50.926;4.374;2024-02-21T09:28:53;10.00;99.90
19999;DHT22;10160;50.926;4.374;2024-02-21T09:31:19;10.00;99.90
19999;DHT22;10160;50.926;4.374;2024-02-21T09:33:45;10.10;99.90
19999;DHT22;10160;50.926;4.374;2024-02-21T09:36:10;10.20;99.90
19999;DHT22;10160;50.926;4.374;2024-02-21T09:38:47;10.10;99.90
19999;DHT22;10160;50.926;4.374;2024-02-21T09:41:27;10.00;99.90
19999;DHT22;10160;50.926;4.374;2024-02-21T09:43:53;10.10;99.90
19999;DHT22;10160;50.926;4.374;2024-02-21T09:46:36;10.20;99.90
19999;DHT22;10160;50.926;4.374;2024-02-21T09:51:34;10.10;99.90
19999;DHT22;10160;50.926;4.374;2024-02-21T09:54:03;10.20;99.90
19999;DHT22;10160;50.926;4.374;2024-02-21T09:56:28;10.30;99.90
19999;DHT22;10160;50.926;4.374;2024-02-21T09:58:54;10.20;99.90
19999;DHT22;10160;50.926;4.374;2024-02-21T10:01:23;10.20;99.90
19999;DHT22;10160;50.926;4.374;2024-02-21T10:03:52;10.30;99.90
19999;DHT22;10160;50.926;4.374;2024-02-21T10:06:21;10.30;99.90
19999;DHT22;10160;50.926;4.374;2024-02-21T10:08:54;10.20;99.90
19999;DHT22;10160;50.926;4.374;2024-02-21T10:11:26;10.30;99.90
19999;DHT22;10160;50.926;4.374;2024-02-21T10:14:06;10.40;99.90
19999;DHT22;10160;50.926;4.374;2024-02-21T10:16:31;10.50;99.90
19999;DHT22;10160;50.926;4.374;2024-02-21T10:18:57;10.40;99.90
19999;DHT22;10160;50.926;4.374;2024-02-21T10:21:23;10.30;99.90
19999;DHT22;10160;50.926;4.374;2024-02-21T10:23:52;10.30;99.90
19999;DHT22;10160;50.926;4.374;2024-02-21T10:26:19;10.40;99.90
19999;DHT22;10160;50.926;4.374;2024-02-21T10:28:46;10.50;99.90
19999;DHT22;10160;50.926;4.374;2024-02-21T10:31:25;10.50;99.90
19999;DHT22;10160;50.926;4.374;2024-02-21T10:33:59;10.50;99.90
19999;DHT22;10160;50.926;4.374;2024-02-21T10:36:28;10.50;99.90
19999;DHT22;10160;50.926;4.374;2024-02-21T10:38:55;10.50;99.90
19999;DHT22;10160;50.926;4.374;2024-02-21T10:41:27;10.40;99.90
19999;DHT22;10160;50.926;4.374;2024-02-21T10:44:01;10.50;99.90
19999;DHT22;10160;50.926;4.374;2024-02-21T10:46:33;10.30;99.90
19999;DHT22;10160;50.926;4.374;2024-02-21T10:49:13;10.40;99.90
19999;DHT22;10160;50.926;4.374;2024-02-21T10:51:43;10.50;99.90
19999;DHT22;10160;50.926;4.374;2024-02-21T10:56:39;10.50;99.90
19999;DHT22;10160;50.926;4.374;2024-02-21T10:59:11;10.40;99.90
19999;DHT22;10160;50.926;4.374;2024-02-21T11:01:44;10.50;99.90
19999;DHT22;10160;50.926;4.374;2024-02-21T11:04:11;10.40;99.90
19999;DHT22;10160;50.926;4.374;2024-02-21T11:06:43;10.50;99.90
19999;DHT22;10160;50.926;4.374;2024-02-21T11:09:10;10.50;99.90
19999;DHT22;10160;50.926;4.374;2024-02-21T11:11:38;10.60;99.90
19999;DHT22;10160;50.926;4.374;2024-02-21T11:14:08;10.70;99.90
19999;DHT22;10160;50.926;4.374;2024-02-21T11:16:39;10.70;99.90
19999;DHT22;10160;50.926;4.374;2024-02-21T11:19:27;10.70;99.90
19999;DHT22;10160;50.926;4.374;2024-02-21T11:21:58;10.60;99.90
19999;DHT22;10160;50.926;4.374;2024-02-21T11:24:31;10.60;99.90
19999;DHT22;10160;50.926;4.374;2024-02-21T11:29:46;10.60;99.90
19999;DHT22;10160;50.926;4.374;2024-02-21T11:32:20;10.70;99.90
19999;DHT22;10160;50.926;4.374;2024-02-21T11:35:03;10.50;99.90
19999;DHT22;10160;50.926;4.374;2024-02-21T11:37:31;10.40;99.90
19999;DHT22;10160;50.926;4.374;2024-02-21T11:40:03;10.40;99.90
19999;DHT22;10160;50.926;4.374;2024-02-21T11:42:33;10.40;99.90
19999;DHT22;10160;50.926;4.374;2024-02-21T11:45:01;10.50;99.90
19999;DHT22;10160;50.926;4.374;2024-02-21T11:47:29;10.40;99.90
19999;DHT22;10160;50.926;4.374;2024-02-21T11:49:54;10.40;99.90
19999;DHT22;10160;50.926;4.374;2024-02-21T11:52:32;10.40;99.90
19999;DHT22;10160;50.926;4.374;2024-02-21T11:54:58;10.50;99.90
19999;DHT22;10160;50.926;4.374;2024-02-21T11:57:30;10.50;99.90
19999;DHT22;10160;50.926;4.374;2024-02-21T11:59:55;10.30;99.90
19999;DHT22;10160;50.926;4.374;2024-02-21T12:02:23;10.20;99.90
19999;DHT22;10160;50.926;4.374;2024-02-21T12:04:49;10.30;99.90
19999;DHT22;10160;50.926;4.374;2024-02-21T12:07:15;10.30;99.90
19999;DHT22;10160;50.926;4.374;2024-02-21T12:09:42;10.40;99.90
19999;DHT22;10160;50.926;4.374;2024-02-21T12:12:20;10.40;99.90
19999;DHT22;10160;50.926;4.374;2024-02-21T12:14:46;10.50;99.90
19999;DHT22;10160;50.926;4.374;2024-02-21T12:17:17;10.60;99.90
19999;DHT22;10160;50.926;4.374;2024-02-21T12:19:48;10.70;99.90
19999;DHT22;10160;50.926;4.374;2024-02-21T12:22:26;10.70;99.90
19999;DHT22;10160;50.926;4.374;2024-02-21T12:24:53;10.60;99.90
19999;DHT22;10160;50.926;4.374;2024-02-21T12:27:25;10.60;99.90
19999;DHT22;10160;50.926;4.374;2024-02-21T12:29:58;10.60;99.90
19999;DHT22;10160;50.926;4.374;2024-02-21T12:32:23;10.50;99.90
19999;DHT22;10160;50.926;4.374;2024-02-21T12:34:57;10.60;99.90
19999;DHT22;10160;50.926;4.374;2024-02-21T12:37:24;10.60;99.90
19999;DHT22;10160;50.926;4.374;2024-02-21T12:39:55;10.60;99.90
19999;DHT22;10160;50.926;4.374;2024-02-21T12:42:30;10.60;99.90
19999;DHT22;10160;50.926;4.374;2024-02-21T12:44:58;10.60;99.90
19999;DHT22;10160;50.926;4.374;2024-02-21T12:47:27;10.60;99.90
19999;DHT22;10160;50.926;4.374;2024-02-21T12:49:59;10.60;99.90
19999;DHT22;10160;50.926;4.374;2024-02-21T12:52:27;10.60;99.90
19999;DHT22;10160;50.926;4.374;2024-02-21T12:54:56;10.60;99.90
19999;DHT22;10160;50.926;4.374;2024-02-21T12:57:24;10.70;99.90
19999;DHT22;10160;50.926;4.374;2024-02-21T12:59:49;10.70;99.90
19999;DHT22;10160;50.926;4.374;2024-02-21T13:02:16;10.60;99.90
19999;DHT22;10160;50.926;4.374;2024-02-21T13:04:45;10.70;99.90
19999;DHT22;10160;50.926;4.374;2024-02-21T13:07:13;10.80;99.90
19999;DHT22;10160;50.926;4.374;2024-02-21T13:09:39;10.70;99.90
19999;DHT22;10160;50.926;4.374;2024-02-21T13:12:06;10.70;99.90
19999;DHT22;10160;50.926;4.374;2024-02-21T13:14:35;10.80;99.90
19999;DHT22;10160;50.926;4.374;2024-02-21T13:17:06;10.80;99.90
19999;DHT22;10160;50.926;4.374;2024-02-21T13:19:32;10.80;99.90
19999;DHT22;10160;50.926;4.374;2024-02-21T13:22:01;10.90;99.90
19999;DHT22;10160;50.926;4.374;2024-02-21T13:24:27;10.90;99.90
19999;DHT22;10160;50.926;4.374;2024-02-21T13:26:53;10.70;99.90
19999;DHT22;10160;50.926;4.374;2024-02-21T13:29:37;10.80;99.90
19999;DHT22;10160;50.926;4.374;2024-02-21T13:32:15;10.80;99.90
19999;DHT22;10160;50.926;4.374;2024-02-21T13:34:44;10.90;99.90
19999;DHT22;10160;50.926;4.374;2024-02-21T13:37:10;10.90;99.90
19999;DHT22;10160;50.926;4.374;2024-02-21T13:39:48;10.90;99.90
19999;DHT22;10160;50.926;4.374;2024-02-21T13:42:13;10.90;99.90
19999;DHT22;10160;50.926;4.374;2024-02-21T13:44:45;10.70;99.90
19999;DHT22;10160;50.926;4.374;2024-02-21T13:47:14;10.60;99.90
19999;DHT22;10160;50.926;4.374;2024-02-21T13:49:40;10.70;99.90
19999;DHT22;10160;50.926;4.374;2024-02-21T13:52:08;10.70;99.90
19999;DHT22;10160;50.926;4.374;2024-02-21T13:54:40;10.60;99.90
19999;DHT22;10160;50.926;4.374;2024-02-21T13:57:09;10.60;99.90
19999;DHT22;10160;50.926;4.374;2024-02-21T13:59:35;10.60;99.90
19999;DHT22;10160;50.926;4.374;2024-02-21T14:02:04;10.50;99.90
19999;DHT22;10160;50.926;4.374;2024-02-21T14:04:29;10.60;99.90
19999;DHT22;10160;50.926;4.374;2024-02-21T14:06:55;10.40;99.90
19999;DHT22;10160;50.926;4.374;2024-02-21T14:09:21;10.40;99.90
19999;DHT22;10160;50.926;4.374;2024-02-21T14:11:47;10.40;99.90
19999;DHT22;10160;50.926;4.374;2024-02-21T14:14:12;10.50;99.90
19999;DHT22;10160;50.926;4.374;2024-02-21T14:16:46;10.40;99.90
19999;DHT22;10160;50.926;4.374;2024-02-21T14:19:19;10.30;99.90
19999;DHT22;10160;50.926;4.374;2024-02-21T14:21:47;10.20;99.90
19999;DHT22;10160;50.926;4.374;2024-02-21T14:24:19;10.20;99.90
19999;DHT22;10160;50.926;4.374;2024-02-21T14:26:51;10.30;99.90
19999;DHT22;10160;50.926;4.374;2024-02-21T14:29:23;10.10;99.90
19999;DHT22;10160;50.926;4.374;2024-02-21T14:31:49;10.10;99.90
19999;DHT22;10160;50.926;4.374;2024-02-21T14:34:17;10.20;99.90
19999;DHT22;10160;50.926;4.374;2024-02-21T14:36:49;10.00;99.90
19999;DHT22;10160;50.926;4.374;2024-02-21T14:39:15;10.00;99.90
19999;DHT22;10160;50.926;4.374;2024-02-21T14:41:41;10.00;99.90
19999;DHT22;10160;50.926;4.374;2024-02-21T14:44:09;10.00;99.90
19999;DHT22;10160;50.926;4.374;2024-02-21T14:46:36;10.00;99.90
19999;DHT22;10160;50.926;4.374;2024-02-21T14:49:03;10.00;99.90
19999;DHT22;10160;50.926;4.374;2024-02-21T14:51:29;9.90;99.90
19999;DHT22;10160;50.926;4.374;2024-02-21T14:53:55;9.90;99.90
19999;DHT22;10160;50.926;4.374;2024-02-21T14:56:21;9.90;99.90
19999;DHT22;10160;50.926;4.374;2024-02-21T14:58:48;9.90;99.90
19999;DHT22;10160;50.926;4.374;2024-02-21T15:01:14;9.90;99.90
19999;DHT22;10160;50.926;4.374;2024-02-21T15:03:43;9.90;99.90
19999;DHT22;10160;50.926;4.374;2024-02-21T15:06:09;9.90;99.90
19999;DHT22;10160;50.926;4.374;2024-02-21T15:08:34;9.90;99.90
19999;DHT22;10160;50.926;4.374;2024-02-21T15:11:01;9.90;99.90
19999;DHT22;10160;50.926;4.374;2024-02-21T15:13:28;9.80;99.90
19999;DHT22;10160;50.926;4.374;2024-02-21T15:15:58;9.80;99.90
19999;DHT22;10160;50.926;4.374;2024-02-21T15:18:24;9.90;99.90
19999;DHT22;10160;50.926;4.374;2024-02-21T15:20:49;9.90;99.90
19999;DHT22;10160;50.926;4.374;2024-02-21T15:23:15;9.90;99.90
19999;DHT22;10160;50.926;4.374;2024-02-21T15:25:45;9.80;99.90
19999;DHT22;10160;50.926;4.374;2024-02-21T15:28:11;9.80;99.90
19999;DHT22;10160;50.926;4.374;2024-02-21T15:30:38;9.90;99.90
19999;DHT22;10160;50.926;4.374;2024-02-21T15:33:04;9.90;99.90
19999;DHT22;10160;50.926;4.374;2024-02-21T15:35:32;9.80;99.90
19999;DHT22;10160;50.926;4.374;2024-02-21T15:37:59;9.90;99.90
19999;DHT22;10160;50.926;4.374;2024-02-21T15:40:25;9.70;99.90
19999;DHT22;10160;50.926;4.374;2024-02-21T15:42:50;9.70;99.90
19999;DHT22;10160;50.926;4.374;2024-02-21T15:45:16;9.80;99.90
19999;DHT22;10160;50.926;4.374;2024-02-21T15:47:42;9.70;99.90
19999;DHT22;10160;50.926;4.374;2024-02-21T15:50:11;9.70;99.90
19999;DHT22;10160;50.926;4.374;2024-02-21T15:52:40;9.70;99.90
19999;DHT22;10160;50.926;4.374;2024-02-21T15:55:06;9.80;99.90